Island Venture — WDG3765 — position and weather

sailwx.info

Track history (hours):
 
Tides and Currents Weather Stations Pressure Air Temp Water Temp Dewpoint Dewpoint Depression Visibility Wind Speed Wind Dir Waves Ship Positions

Island Venture

Owner: Island Tug and Barge, Seattle, WA. More information available from US FCC via Universal Licensing System and Coast Guard Vessel Documentation Center.

Last reported at 2015-May-27 08:24 UTC. Time now 2015-May-28 06:09 UTC.
Position N 47°12' W 122°56'.

Type: Tug. MMSI: 367529420.

Date/timePositionNaut miles runAvg speedWind from/ knotsBaromVisibWave heightAir tempDewpointWater temp
2015-May-27 08:24N 47°12' W 122°56'3 3.6
2015-May-27 07:32N 47°10' W 122°53'3 3.4
2015-May-27 06:33N 47°12' W 122°49'1 0.5
2015-May-27 05:19N 47°11' W 122°49'8 6.6
2015-May-27 04:08N 47°12' W 122°37'6 9.7
2015-May-27 03:33N 47°16' W 122°33'9 8.9
2015-May-27 02:33N 47°25' W 122°32'5 8.3
2015-May-27 01:55N 47°30' W 122°29'3 8.4
2015-May-27 01:33N 47°33' W 122°27'2 8.9
2015-May-27 01:20N 47°35' W 122°26'4 4.8
2015-May-27 00:32N 47°33' W 122°20'0 5.4
2015-May-27 00:29N 47°33' W 122°20'2 2.0
2015-May-26 23:33N 47°35' W 122°22'0 3.8
2015-May-26 23:29N 47°35' W 122°22'5 4.9
2015-May-26 22:33N 47°33' W 122°28'1 7.4
2015-May-26 22:24N 47°32' W 122°28'6 7.5
2015-May-26 21:33N 47°26' W 122°31'7 7.4
2015-May-26 20:33N 47°19' W 122°33'7 6.8
2015-May-26 19:32N 47°12' W 122°36'4 1.5
2015-May-26 16:33N 47°08' W 122°39'0 0.0
2015-May-26 14:18N 47°08' W 122°39'3 2.5
2015-May-26 13:05N 47°11' W 122°37'3 5.4
2015-May-26 12:27N 47°14' W 122°35'3 3.7
2015-May-26 11:33N 47°17' W 122°33'4 3.9
2015-May-26 10:33N 47°21' W 122°33'6 5.6
2015-May-26 09:33N 47°26' W 122°31'2 5.5
2015-May-26 09:12N 47°28' W 122°31'4 5.8
2015-May-26 08:33N 47°32' W 122°29'1 5.3
2015-May-26 08:27N 47°32' W 122°28'5 5.9
2015-May-26 07:33N 47°36' W 122°23'0 4.1
2015-May-26 07:31N 47°36' W 122°23'3 2.7
2015-May-26 06:33N 47°34' W 122°21'0 0.0
2015-May-26 06:31N 47°34' W 122°21'0 0.0
2015-May-26 06:16N 47°34' W 122°21'0 0.0
2015-May-26 05:33N 47°34' W 122°21'0 0.0
2015-May-26 04:33N 47°34' W 122°21'0 0.0
2015-May-26 04:31N 47°34' W 122°21'0 0.0
2015-May-26 03:33N 47°34' W 122°21'0 0.1
2015-May-26 03:31N 47°34' W 122°21'0 0.4
2015-May-26 02:33N 47°34' W 122°21'0 0.1
2015-May-26 02:31N 47°34' W 122°21'0 0.4
2015-May-26 01:33N 47°34' W 122°21'0 0.1
2015-May-26 01:30N 47°34' W 122°21'0 0.0
2015-May-26 00:33N 47°34' W 122°21'0 0.1
2015-May-26 00:30N 47°34' W 122°21'0 0.0
2015-May-25 23:33N 47°34' W 122°21'0 0.0
2015-May-25 23:30N 47°34' W 122°21'0 0.0
2015-May-25 22:33N 47°34' W 122°21'0 0.1
2015-May-25 22:29N 47°34' W 122°21'0 0.0
2015-May-25 21:33N 47°34' W 122°21'0 0.0
2015-May-25 21:29N 47°34' W 122°21'0 0.0
2015-May-25 20:32N 47°34' W 122°21'0 0.1
2015-May-25 20:29N 47°34' W 122°21'0 0.0
2015-May-25 19:33N 47°34' W 122°21'0 0.1
2015-May-25 19:29N 47°34' W 122°21'0 0.0
2015-May-25 18:33N 47°34' W 122°21'0 0.0
2015-May-25 18:33N 47°34' W 122°21'0 0.0
2015-May-25 17:32N 47°34' W 122°21'0 0.0
2015-May-25 17:31N 47°34' W 122°21'0 0.0
2015-May-25 16:33N 47°34' W 122°21'0 1.8
2015-May-25 16:32N 47°34' W 122°21'0 0.0
2015-May-25 15:33N 47°34' W 122°21'0 0.0
2015-May-25 15:31N 47°34' W 122°21'0 0.1
2015-May-25 14:33N 47°34' W 122°21'0 0.0
2015-May-25 14:31N 47°34' W 122°21'0 0.0
2015-May-25 13:33N 47°34' W 122°21'0 0.1
2015-May-25 13:31N 47°34' W 122°21'0 0.0
2015-May-25 12:33N 47°34' W 122°21'0 0.1
2015-May-25 12:30N 47°34' W 122°21'1 0.8
2015-May-25 11:33N 47°35' W 122°22'0 6.1
2015-May-25 11:30N 47°35' W 122°22'7 7.8
2015-May-25 10:33N 47°42' W 122°26'1 7.9
2015-May-25 10:29N 47°43' W 122°26'7 8.1
2015-May-25 09:33N 47°50' W 122°26'1 7.8
2015-May-25 09:22N 47°52' W 122°27'6 7.8
2015-May-25 08:32N 47°56' W 122°33'8 7.8
2015-May-25 07:33N 48°03' W 122°39'10 7.5
2015-May-25 06:15N 48°11' W 122°48'7 7.9
2015-May-25 05:22N 48°18' W 122°48'6 7.5
2015-May-25 04:33N 48°24' W 122°45'7 6.7
2015-May-25 03:33N 48°30' W 122°43'7 6.7
2015-May-25 02:33N 48°36' W 122°39'7 7.3
2015-May-25 01:33N 48°42' W 122°32'2 1.6
2015-May-25 00:32N 48°44' W 122°32'2 1.8
2015-May-24 23:33N 48°43' W 122°34'1 1.4
2015-May-24 22:33N 48°42' W 122°32'2 2.0
2015-May-24 21:33N 48°44' W 122°34'3 3.1
2015-May-24 20:33N 48°40' W 122°33'4 4.0
2015-May-24 19:33N 48°37' W 122°37'3 3.4
2015-May-24 18:33N 48°34' W 122°40'4 4.2
2015-May-24 17:33N 48°31' W 122°43'5 5.4
2015-May-24 16:33N 48°25' W 122°44'20 4.8
2015-May-24 12:22N 48°06' W 122°38'4 5.2
2015-May-24 11:33N 48°02' W 122°37'6 6.1
2015-May-24 10:33N 47°57' W 122°31'6 6.0
2015-May-24 09:33N 47°51' W 122°27'5 6.2
2015-May-24 08:48N 47°47' W 122°26'2 6.3
2015-May-24 08:33N 47°45' W 122°26'1 6.3
2015-May-24 08:27N 47°44' W 122°26'6 6.5
2015-May-24 07:33N 47°39' W 122°26'0 5.0
2015-May-24 07:33N 47°39' W 122°26'5 5.2
2015-May-24 06:33N 47°34' W 122°21'0 0.0
2015-May-24 06:28N 47°34' W 122°21'1 2.5
2015-May-24 06:08N 47°35' W 122°22'1 1.6
2015-May-24 05:33N 47°34' W 122°21'0 0.0
2015-May-24 04:33N 47°34' W 122°21'0 0.0
2015-May-24 04:32N 47°34' W 122°21'0 0.0
2015-May-24 03:33N 47°34' W 122°21'0 0.0
2015-May-24 03:32N 47°34' W 122°21'0 0.0
2015-May-24 02:33N 47°34' W 122°21'0 0.3
2015-May-24 02:32N 47°34' W 122°21'0 0.0
2015-May-24 01:33N 47°34' W 122°21'0 0.0
2015-May-24 01:31N 47°34' W 122°21'0 0.0
2015-May-24 00:33N 47°34' W 122°21'0 0.0
2015-May-24 00:31N 47°34' W 122°21'0 0.0
2015-May-23 23:33N 47°34' W 122°21'0 0.0
2015-May-23 23:31N 47°34' W 122°21'0 0.0
2015-May-23 22:33N 47°34' W 122°21'0 0.0
2015-May-23 22:25N 47°34' W 122°21'0 0.0
2015-May-23 21:29N 47°34' W 122°21'0 0.0
2015-May-23 21:25N 47°34' W 122°21'1 0.6
2015-May-23 20:33N 47°34' W 122°21'0 0.0
2015-May-23 20:29N 47°34' W 122°21'1 0.6
2015-May-23 19:33N 47°34' W 122°21'1 4.6
2015-May-23 19:24N 47°35' W 122°22'1 1.5
2015-May-23 18:34N 47°34' W 122°21'0 6.0
2015-May-23 18:33N 47°34' W 122°21'0 0.2
2015-May-23 17:33N 47°34' W 122°21'0 0.0
2015-May-23 17:33N 47°34' W 122°21'0 0.0
2015-May-23 16:33N 47°34' W 122°21'0 0.0
2015-May-23 16:32N 47°34' W 122°21'0 0.1
2015-May-23 15:33N 47°34' W 122°21'0 2.6
2015-May-23 15:32N 47°34' W 122°21'1 1.5
2015-May-23 14:33N 47°35' W 122°22'0 0.0
2015-May-23 14:31N 47°35' W 122°22'1 1.0
2015-May-23 13:33N 47°34' W 122°21'0 0.0
2015-May-23 13:31N 47°34' W 122°21'0 0.0
2015-May-23 12:33N 47°34' W 122°21'0 0.0
2015-May-23 12:30N 47°34' W 122°21'0 0.0
2015-May-23 11:33N 47°34' W 122°21'0 0.0
2015-May-23 11:30N 47°34' W 122°21'0 0.0
2015-May-23 10:33N 47°34' W 122°21'0 0.1
2015-May-23 10:30N 47°34' W 122°21'1 1.4
2015-May-23 09:33N 47°35' W 122°23'0 5.7
2015-May-23 09:29N 47°36' W 122°23'5 5.2
2015-May-23 08:33N 47°40' W 122°25'0 5.7
2015-May-23 08:29N 47°40' W 122°24'2 2.4
2015-May-23 07:33N 47°39' W 122°21'0 4.6
2015-May-23 07:29N 47°39' W 122°21'2 1.7
2015-May-23 06:32N 47°39' W 122°19'0 0.0
2015-May-23 06:32N 47°39' W 122°19'4 6.1
2015-May-23 05:57N 47°41' W 122°14'3 8.1
2015-May-23 05:33N 47°44' W 122°16'1 1.4
2015-May-23 04:33N 47°45' W 122°16'0 0.1
2015-May-23 03:33N 47°45' W 122°16'3 4.7
2015-May-23 02:56N 47°42' W 122°16'3 7.0
2015-May-23 02:33N 47°40' W 122°15'3 4.6
2015-May-23 01:55N 47°39' W 122°20'2 4.8
2015-May-23 01:28N 47°40' W 122°23'0 4.4
2015-May-23 01:24N 47°40' W 122°23'1 1.0
2015-May-23 00:33N 47°40' W 122°24'0 0.0
2015-May-23 00:29N 47°40' W 122°24'1 0.7
2015-May-22 23:33N 47°41' W 122°25'0 4.8
2015-May-22 23:29N 47°41' W 122°25'6 7.0
2015-May-22 22:33N 47°34' W 122°27'1 7.3
2015-May-22 22:28N 47°34' W 122°27'8 8.3
2015-May-22 21:33N 47°27' W 122°31'1 8.0
2015-May-22 21:23N 47°25' W 122°32'8 8.8
2015-May-22 20:30N 47°18' W 122°33'9 9.0
2015-May-22 19:33N 47°10' W 122°39'2 0.3
2015-May-22 14:07N 47°11' W 122°37'5 6.9
2015-May-22 13:26N 47°16' W 122°34'7 8.1
2015-May-22 12:33N 47°23' W 122°32'8 7.6
2015-May-22 11:33N 47°30' W 122°30'5 7.7
2015-May-22 10:52N 47°35' W 122°28'2 7.8
2015-May-22 10:33N 47°38' W 122°28'0 6.4
2015-May-22 10:32N 47°38' W 122°28'4 3.7
2015-May-22 09:33N 47°40' W 122°24'0 2.2
2015-May-22 09:32N 47°40' W 122°24'3 3.1
2015-May-22 08:26N 47°39' W 122°19'2 6.6
2015-May-22 08:11N 47°39' W 122°16'5 7.1
2015-May-22 07:32N 47°43' W 122°16'2 1.9
2015-May-22 06:33N 47°45' W 122°16'0 0.4
2015-May-22 05:33N 47°45' W 122°15'2 1.9
2015-May-22 04:33N 47°44' W 122°16'2 7.4
2015-May-22 04:14N 47°42' W 122°15'4 4.4
2015-May-22 03:18N 47°39' W 122°20'0 0.0
2015-May-22 03:18N 47°39' W 122°20'3 4.0
2015-May-22 02:34N 47°40' W 122°24'0 0.0
2015-May-22 02:33N 47°40' W 122°24'1 0.6
2015-May-22 01:33N 47°40' W 122°24'0 0.0
2015-May-22 01:33N 47°40' W 122°24'4 4.3
2015-May-22 00:33N 47°36' W 122°23'0 7.1
2015-May-22 00:33N 47°36' W 122°23'4 3.7
2015-May-21 23:33N 47°33' W 122°20'1 1.5
2015-May-21 22:51N 47°34' W 122°21'0 0.2
2015-May-21 22:33N 47°34' W 122°21'0 0.0
2015-May-21 22:31N 47°34' W 122°21'0 0.0
2015-May-21 21:33N 47°34' W 122°21'0 0.0
2015-May-21 21:31N 47°34' W 122°21'0 0.0
2015-May-21 20:33N 47°34' W 122°21'0 0.1
2015-May-21 20:30N 47°34' W 122°21'0 0.0
2015-May-21 19:31N 47°34' W 122°21'0 0.2
2015-May-21 19:29N 47°34' W 122°21'0 0.0
2015-May-21 18:29N 47°34' W 122°21'0 0.0
2015-May-21 18:29N 47°34' W 122°21'0 0.0
2015-May-21 17:34N 47°34' W 122°21'0 0.0
2015-May-21 17:33N 47°34' W 122°21'0 0.0
2015-May-21 16:33N 47°34' W 122°21'0 0.0
2015-May-21 16:33N 47°34' W 122°21'1 1.1
2015-May-21 15:31N 47°33' W 122°20'1 2.2
2015-May-21 14:52N 47°34' W 122°21'1 4.1
2015-May-21 14:33N 47°35' W 122°22'0 0.0
2015-May-21 14:32N 47°35' W 122°22'1 1.4
2015-May-21 13:33N 47°34' W 122°21'0 2.9
2015-May-21 13:31N 47°34' W 122°21'0 0.0
2015-May-21 12:33N 47°34' W 122°21'0 1.6
2015-May-21 12:32N 47°34' W 122°21'2 2.5
2015-May-21 11:33N 47°36' W 122°23'0 4.5
2015-May-21 11:32N 47°36' W 122°23'5 5.2
2015-May-21 10:33N 47°32' W 122°28'0 6.3
2015-May-21 10:31N 47°32' W 122°28'6 6.7
2015-May-21 09:33N 47°26' W 122°31'0 7.0
2015-May-21 09:30N 47°26' W 122°31'6 6.7
2015-May-21 08:33N 47°20' W 122°33'8 7.7
2015-May-21 07:32N 47°12' W 122°36'13 0.7
2015-May-20 13:23N 47°12' W 122°56'3 3.7
2015-May-20 12:33N 47°10' W 122°53'6 4.9
2015-May-20 11:13N 47°11' W 122°44'5 6.8
2015-May-20 10:31N 47°11' W 122°37'7 7.6
2015-May-20 09:33N 47°18' W 122°33'6 5.6
2015-May-20 08:33N 47°24' W 122°32'0 2.5
2015-May-20 08:24N 47°24' W 122°32'6 6.6
2015-May-20 07:33N 47°18' W 122°33'8 7.2
2015-May-20 06:29N 47°11' W 122°39'10 0.5
2015-May-19 11:21N 47°09' W 122°53'3 4.3
2015-May-19 10:33N 47°11' W 122°49'6 4.7
2015-May-19 09:20N 47°07' W 122°43'5 6.6
2015-May-19 08:31N 47°11' W 122°37'7 6.7
2015-May-19 07:33N 47°17' W 122°33'4 3.6
2015-May-19 06:33N 47°18' W 122°27'3 0.9
2015-May-19 03:06N 47°17' W 122°23'4 7.2
2015-May-19 02:33N 47°19' W 122°27'1 9.2
2015-May-19 02:25N 47°20' W 122°27'8 8.7
2015-May-19 01:33N 47°28' W 122°23'110.5
2015-May-19 01:26N 47°29' W 122°24'7 8.2
2015-May-19 00:33N 47°36' W 122°23'0 8.8
2015-May-19 00:31N 47°36' W 122°23'3 3.5
2015-May-18 23:33N 47°33' W 122°20'0 0.8
2015-May-18 23:30N 47°33' W 122°20'1 1.0
2015-May-18 22:24N 47°34' W 122°21'0 0.0
2015-May-18 22:24N 47°34' W 122°21'2 1.9
2015-May-18 21:33N 47°35' W 122°22'0 0.1
2015-May-18 21:29N 47°35' W 122°22'0 0.0
2015-May-18 20:33N 47°35' W 122°22'0 0.1
2015-May-18 20:29N 47°35' W 122°22'1 0.6
2015-May-18 19:33N 47°36' W 122°22'0 0.0
2015-May-18 19:33N 47°36' W 122°22'4 4.0
2015-May-18 18:33N 47°33' W 122°27'2 5.8
2015-May-18 18:17N 47°32' W 122°28'5 7.1
2015-May-18 17:33N 47°27' W 122°31'1 6.9
2015-May-18 17:22N 47°26' W 122°32'6 7.1
2015-May-18 16:33N 47°20' W 122°33'9 8.6
2015-May-18 15:33N 47°12' W 122°36'4 3.9
2015-May-18 14:32N 47°08' W 122°39'0 0.0
2015-May-18 14:16N 47°08' W 122°39'0 0.0
2015-May-18 12:32N 47°08' W 122°39'0 0.0
2015-May-18 11:54N 47°08' W 122°39'0 0.0
2015-May-18 11:33N 47°08' W 122°39'0 0.0
2015-May-18 10:33N 47°08' W 122°39'4 1.8
2015-May-18 08:30N 47°12' W 122°37'5 4.6
2015-May-18 07:27N 47°16' W 122°33'5 5.8
2015-May-18 06:33N 47°21' W 122°32'7 6.6
2015-May-18 05:33N 47°27' W 122°31'6 6.4
2015-May-18 04:33N 47°33' W 122°27'0 7.2
2015-May-18 04:30N 47°34' W 122°27'4 4.2
2015-May-18 03:32N 47°34' W 122°21'0 3.1
2015-May-18 03:30N 47°34' W 122°21'0 0.2
2015-May-18 02:30N 47°34' W 122°21'0 0.4
2015-May-18 02:29N 47°34' W 122°21'2 1.8
2015-May-18 01:33N 47°35' W 122°22'0 5.4
2015-May-18 01:29N 47°35' W 122°22'2 1.8
2015-May-18 00:33N 47°33' W 122°21'0 2.2
2015-May-18 00:23N 47°34' W 122°21'0 0.1
2015-May-17 23:33N 47°34' W 122°21'0 0.0
2015-May-17 23:33N 47°34' W 122°21'0 0.0
2015-May-17 22:24N 47°34' W 122°21'0 0.0
2015-May-17 22:08N 47°34' W 122°21'0 0.0
2015-May-17 20:37N 47°34' W 122°21'0 0.0
2015-May-17 20:27N 47°34' W 122°21'0 0.0
2015-May-17 19:33N 47°34' W 122°21'0 0.3
2015-May-17 18:31N 47°34' W 122°21'0 2.6
2015-May-17 18:29N 47°34' W 122°21'0 0.5
2015-May-17 17:33N 47°34' W 122°21'0 0.0
2015-May-17 17:31N 47°34' W 122°21'0 0.0
2015-May-17 16:33N 47°34' W 122°21'0 0.0
2015-May-17 16:30N 47°34' W 122°21'0 0.0
2015-May-17 15:33N 47°34' W 122°21'0 0.1
2015-May-17 15:29N 47°34' W 122°21'0 0.0
2015-May-17 14:34N 47°34' W 122°21'0 0.0
2015-May-17 14:33N 47°34' W 122°21'0 0.0
2015-May-17 13:33N 47°34' W 122°21'0 0.0
2015-May-17 13:32N 47°34' W 122°21'0 0.0
2015-May-17 12:33N 47°34' W 122°21'0 0.0
2015-May-17 12:32N 47°34' W 122°21'0 0.0
2015-May-17 11:27N 47°34' W 122°21'0 0.0
2015-May-17 11:25N 47°34' W 122°21'0 0.0
2015-May-17 10:33N 47°34' W 122°21'0 0.0
2015-May-17 10:30N 47°34' W 122°21'0 0.0
2015-May-17 09:18N 47°34' W 122°21'0 0.0
2015-May-17 09:14N 47°34' W 122°21'0 0.0
2015-May-17 08:33N 47°34' W 122°21'0 0.2
2015-May-17 08:29N 47°34' W 122°21'  
Track history (hours):
 
Tides and Currents Weather Stations Pressure Air Temp Water Temp Dewpoint Dewpoint Depression Visibility Wind Speed Wind Dir Waves Ship Positions

Island Venture

Owner: Island Tug and Barge, Seattle, WA. More information available from US FCC via Universal Licensing System and Coast Guard Vessel Documentation Center.

Last reported at 2015-May-27 08:24 UTC. Time now 2015-May-28 06:09 UTC.
Position N 47°12' W 122°56'.

Type: Tug. MMSI: 367529420.

Date/timePositionNaut miles runAvg speedWind from/ knotsBaromVisibWave heightAir tempDewpointWater temp
2015-May-27 08:24N 47°12' W 122°56'3 3.6
2015-May-27 07:32N 47°10' W 122°53'3 3.4
2015-May-27 06:33N 47°12' W 122°49'1 0.5
2015-May-27 05:19N 47°11' W 122°49'8 6.6
2015-May-27 04:08N 47°12' W 122°37'6 9.7
2015-May-27 03:33N 47°16' W 122°33'9 8.9
2015-May-27 02:33N 47°25' W 122°32'5 8.3
2015-May-27 01:55N 47°30' W 122°29'3 8.4
2015-May-27 01:33N 47°33' W 122°27'2 8.9
2015-May-27 01:20N 47°35' W 122°26'4 4.8
2015-May-27 00:32N 47°33' W 122°20'0 5.4
2015-May-27 00:29N 47°33' W 122°20'2 2.0
2015-May-26 23:33N 47°35' W 122°22'0 3.8
2015-May-26 23:29N 47°35' W 122°22'5 4.9
2015-May-26 22:33N 47°33' W 122°28'1 7.4
2015-May-26 22:24N 47°32' W 122°28'6 7.5
2015-May-26 21:33N 47°26' W 122°31'7 7.4
2015-May-26 20:33N 47°19' W 122°33'7 6.8
2015-May-26 19:32N 47°12' W 122°36'4 1.5
2015-May-26 16:33N 47°08' W 122°39'0 0.0
2015-May-26 14:18N 47°08' W 122°39'3 2.5
2015-May-26 13:05N 47°11' W 122°37'3 5.4
2015-May-26 12:27N 47°14' W 122°35'3 3.7
2015-May-26 11:33N 47°17' W 122°33'4 3.9
2015-May-26 10:33N 47°21' W 122°33'6 5.6
2015-May-26 09:33N 47°26' W 122°31'2 5.5
2015-May-26 09:12N 47°28' W 122°31'4 5.8
2015-May-26 08:33N 47°32' W 122°29'1 5.3
2015-May-26 08:27N 47°32' W 122°28'5 5.9
2015-May-26 07:33N 47°36' W 122°23'0 4.1
2015-May-26 07:31N 47°36' W 122°23'3 2.7
2015-May-26 06:33N 47°34' W 122°21'0 0.0
2015-May-26 06:31N 47°34' W 122°21'0 0.0
2015-May-26 06:16N 47°34' W 122°21'0 0.0
2015-May-26 05:33N 47°34' W 122°21'0 0.0
2015-May-26 04:33N 47°34' W 122°21'0 0.0
2015-May-26 04:31N 47°34' W 122°21'0 0.0
2015-May-26 03:33N 47°34' W 122°21'0 0.1
2015-May-26 03:31N 47°34' W 122°21'0 0.4
2015-May-26 02:33N 47°34' W 122°21'0 0.1
2015-May-26 02:31N 47°34' W 122°21'0 0.4
2015-May-26 01:33N 47°34' W 122°21'0 0.1
2015-May-26 01:30N 47°34' W 122°21'0 0.0
2015-May-26 00:33N 47°34' W 122°21'0 0.1
2015-May-26 00:30N 47°34' W 122°21'0 0.0
2015-May-25 23:33N 47°34' W 122°21'0 0.0
2015-May-25 23:30N 47°34' W 122°21'0 0.0
2015-May-25 22:33N 47°34' W 122°21'0 0.1
2015-May-25 22:29N 47°34' W 122°21'0 0.0
2015-May-25 21:33N 47°34' W 122°21'0 0.0
2015-May-25 21:29N 47°34' W 122°21'0 0.0
2015-May-25 20:32N 47°34' W 122°21'0 0.1
2015-May-25 20:29N 47°34' W 122°21'0 0.0
2015-May-25 19:33N 47°34' W 122°21'0 0.1
2015-May-25 19:29N 47°34' W 122°21'0 0.0
2015-May-25 18:33N 47°34' W 122°21'0 0.0
2015-May-25 18:33N 47°34' W 122°21'0 0.0
2015-May-25 17:32N 47°34' W 122°21'0 0.0
2015-May-25 17:31N 47°34' W 122°21'0 0.0
2015-May-25 16:33N 47°34' W 122°21'0 1.8
2015-May-25 16:32N 47°34' W 122°21'0 0.0
2015-May-25 15:33N 47°34' W 122°21'0 0.0
2015-May-25 15:31N 47°34' W 122°21'0 0.1
2015-May-25 14:33N 47°34' W 122°21'0 0.0
2015-May-25 14:31N 47°34' W 122°21'0 0.0
2015-May-25 13:33N 47°34' W 122°21'0 0.1
2015-May-25 13:31N 47°34' W 122°21'0 0.0
2015-May-25 12:33N 47°34' W 122°21'0 0.1
2015-May-25 12:30N 47°34' W 122°21'1 0.8
2015-May-25 11:33N 47°35' W 122°22'0 6.1
2015-May-25 11:30N 47°35' W 122°22'7 7.8
2015-May-25 10:33N 47°42' W 122°26'1 7.9
2015-May-25 10:29N 47°43' W 122°26'7 8.1
2015-May-25 09:33N 47°50' W 122°26'1 7.8
2015-May-25 09:22N 47°52' W 122°27'6 7.8
2015-May-25 08:32N 47°56' W 122°33'8 7.8
2015-May-25 07:33N 48°03' W 122°39'10 7.5
2015-May-25 06:15N 48°11' W 122°48'7 7.9
2015-May-25 05:22N 48°18' W 122°48'6 7.5
2015-May-25 04:33N 48°24' W 122°45'7 6.7
2015-May-25 03:33N 48°30' W 122°43'7 6.7
2015-May-25 02:33N 48°36' W 122°39'7 7.3
2015-May-25 01:33N 48°42' W 122°32'2 1.6
2015-May-25 00:32N 48°44' W 122°32'2 1.8
2015-May-24 23:33N 48°43' W 122°34'1 1.4
2015-May-24 22:33N 48°42' W 122°32'2 2.0
2015-May-24 21:33N 48°44' W 122°34'3 3.1
2015-May-24 20:33N 48°40' W 122°33'4 4.0
2015-May-24 19:33N 48°37' W 122°37'3 3.4
2015-May-24 18:33N 48°34' W 122°40'4 4.2
2015-May-24 17:33N 48°31' W 122°43'5 5.4
2015-May-24 16:33N 48°25' W 122°44'20 4.8
2015-May-24 12:22N 48°06' W 122°38'4 5.2
2015-May-24 11:33N 48°02' W 122°37'6 6.1
2015-May-24 10:33N 47°57' W 122°31'6 6.0
2015-May-24 09:33N 47°51' W 122°27'5 6.2
2015-May-24 08:48N 47°47' W 122°26'2 6.3
2015-May-24 08:33N 47°45' W 122°26'1 6.3
2015-May-24 08:27N 47°44' W 122°26'6 6.5
2015-May-24 07:33N 47°39' W 122°26'0 5.0
2015-May-24 07:33N 47°39' W 122°26'5 5.2
2015-May-24 06:33N 47°34' W 122°21'0 0.0
2015-May-24 06:28N 47°34' W 122°21'1 2.5
2015-May-24 06:08N 47°35' W 122°22'1 1.6
2015-May-24 05:33N 47°34' W 122°21'0 0.0
2015-May-24 04:33N 47°34' W 122°21'0 0.0
2015-May-24 04:32N 47°34' W 122°21'0 0.0
2015-May-24 03:33N 47°34' W 122°21'0 0.0
2015-May-24 03:32N 47°34' W 122°21'0 0.0
2015-May-24 02:33N 47°34' W 122°21'0 0.3
2015-May-24 02:32N 47°34' W 122°21'0 0.0
2015-May-24 01:33N 47°34' W 122°21'0 0.0
2015-May-24 01:31N 47°34' W 122°21'0 0.0
2015-May-24 00:33N 47°34' W 122°21'0 0.0
2015-May-24 00:31N 47°34' W 122°21'0 0.0
2015-May-23 23:33N 47°34' W 122°21'0 0.0
2015-May-23 23:31N 47°34' W 122°21'0 0.0
2015-May-23 22:33N 47°34' W 122°21'0 0.0
2015-May-23 22:25N 47°34' W 122°21'0 0.0
2015-May-23 21:29N 47°34' W 122°21'0 0.0
2015-May-23 21:25N 47°34' W 122°21'1 0.6
2015-May-23 20:33N 47°34' W 122°21'0 0.0
2015-May-23 20:29N 47°34' W 122°21'1 0.6
2015-May-23 19:33N 47°34' W 122°21'1 4.6
2015-May-23 19:24N 47°35' W 122°22'1 1.5
2015-May-23 18:34N 47°34' W 122°21'0 6.0
2015-May-23 18:33N 47°34' W 122°21'0 0.2
2015-May-23 17:33N 47°34' W 122°21'0 0.0
2015-May-23 17:33N 47°34' W 122°21'0 0.0
2015-May-23 16:33N 47°34' W 122°21'0 0.0
2015-May-23 16:32N 47°34' W 122°21'0 0.1
2015-May-23 15:33N 47°34' W 122°21'0 2.6
2015-May-23 15:32N 47°34' W 122°21'1 1.5
2015-May-23 14:33N 47°35' W 122°22'0 0.0
2015-May-23 14:31N 47°35' W 122°22'1 1.0
2015-May-23 13:33N 47°34' W 122°21'0 0.0
2015-May-23 13:31N 47°34' W 122°21'0 0.0
2015-May-23 12:33N 47°34' W 122°21'0 0.0
2015-May-23 12:30N 47°34' W 122°21'0 0.0
2015-May-23 11:33N 47°34' W 122°21'0 0.0
2015-May-23 11:30N 47°34' W 122°21'0 0.0
2015-May-23 10:33N 47°34' W 122°21'0 0.1
2015-May-23 10:30N 47°34' W 122°21'1 1.4
2015-May-23 09:33N 47°35' W 122°23'0 5.7
2015-May-23 09:29N 47°36' W 122°23'5 5.2
2015-May-23 08:33N 47°40' W 122°25'0 5.7
2015-May-23 08:29N 47°40' W 122°24'2 2.4
2015-May-23 07:33N 47°39' W 122°21'0 4.6
2015-May-23 07:29N 47°39' W 122°21'2 1.7
2015-May-23 06:32N 47°39' W 122°19'0 0.0
2015-May-23 06:32N 47°39' W 122°19'4 6.1
2015-May-23 05:57N 47°41' W 122°14'3 8.1
2015-May-23 05:33N 47°44' W 122°16'1 1.4
2015-May-23 04:33N 47°45' W 122°16'0 0.1
2015-May-23 03:33N 47°45' W 122°16'3 4.7
2015-May-23 02:56N 47°42' W 122°16'3 7.0
2015-May-23 02:33N 47°40' W 122°15'3 4.6
2015-May-23 01:55N 47°39' W 122°20'2 4.8
2015-May-23 01:28N 47°40' W 122°23'0 4.4
2015-May-23 01:24N 47°40' W 122°23'1 1.0
2015-May-23 00:33N 47°40' W 122°24'0 0.0
2015-May-23 00:29N 47°40' W 122°24'1 0.7
2015-May-22 23:33N 47°41' W 122°25'0 4.8
2015-May-22 23:29N 47°41' W 122°25'6 7.0
2015-May-22 22:33N 47°34' W 122°27'1 7.3
2015-May-22 22:28N 47°34' W 122°27'8 8.3
2015-May-22 21:33N 47°27' W 122°31'1 8.0
2015-May-22 21:23N 47°25' W 122°32'8 8.8
2015-May-22 20:30N 47°18' W 122°33'9 9.0
2015-May-22 19:33N 47°10' W 122°39'2 0.3
2015-May-22 14:07N 47°11' W 122°37'5 6.9
2015-May-22 13:26N 47°16' W 122°34'7 8.1
2015-May-22 12:33N 47°23' W 122°32'8 7.6
2015-May-22 11:33N 47°30' W 122°30'5 7.7
2015-May-22 10:52N 47°35' W 122°28'2 7.8
2015-May-22 10:33N 47°38' W 122°28'0 6.4
2015-May-22 10:32N 47°38' W 122°28'4 3.7
2015-May-22 09:33N 47°40' W 122°24'0 2.2
2015-May-22 09:32N 47°40' W 122°24'3 3.1
2015-May-22 08:26N 47°39' W 122°19'2 6.6
2015-May-22 08:11N 47°39' W 122°16'5 7.1
2015-May-22 07:32N 47°43' W 122°16'2 1.9
2015-May-22 06:33N 47°45' W 122°16'0 0.4
2015-May-22 05:33N 47°45' W 122°15'2 1.9
2015-May-22 04:33N 47°44' W 122°16'2 7.4
2015-May-22 04:14N 47°42' W 122°15'4 4.4
2015-May-22 03:18N 47°39' W 122°20'0 0.0
2015-May-22 03:18N 47°39' W 122°20'3 4.0
2015-May-22 02:34N 47°40' W 122°24'0 0.0
2015-May-22 02:33N 47°40' W 122°24'1 0.6
2015-May-22 01:33N 47°40' W 122°24'0 0.0
2015-May-22 01:33N 47°40' W 122°24'4 4.3
2015-May-22 00:33N 47°36' W 122°23'0 7.1
2015-May-22 00:33N 47°36' W 122°23'4 3.7
2015-May-21 23:33N 47°33' W 122°20'1 1.5
2015-May-21 22:51N 47°34' W 122°21'0 0.2
2015-May-21 22:33N 47°34' W 122°21'0 0.0
2015-May-21 22:31N 47°34' W 122°21'0 0.0
2015-May-21 21:33N 47°34' W 122°21'0 0.0
2015-May-21 21:31N 47°34' W 122°21'0 0.0
2015-May-21 20:33N 47°34' W 122°21'0 0.1
2015-May-21 20:30N 47°34' W 122°21'0 0.0
2015-May-21 19:31N 47°34' W 122°21'0 0.2
2015-May-21 19:29N 47°34' W 122°21'0 0.0
2015-May-21 18:29N 47°34' W 122°21'0 0.0
2015-May-21 18:29N 47°34' W 122°21'0 0.0
2015-May-21 17:34N 47°34' W 122°21'0 0.0
2015-May-21 17:33N 47°34' W 122°21'0 0.0
2015-May-21 16:33N 47°34' W 122°21'0 0.0
2015-May-21 16:33N 47°34' W 122°21'1 1.1
2015-May-21 15:31N 47°33' W 122°20'1 2.2
2015-May-21 14:52N 47°34' W 122°21'1 4.1
2015-May-21 14:33N 47°35' W 122°22'0 0.0
2015-May-21 14:32N 47°35' W 122°22'1 1.4
2015-May-21 13:33N 47°34' W 122°21'0 2.9
2015-May-21 13:31N 47°34' W 122°21'0 0.0
2015-May-21 12:33N 47°34' W 122°21'0 1.6
2015-May-21 12:32N 47°34' W 122°21'2 2.5
2015-May-21 11:33N 47°36' W 122°23'0 4.5
2015-May-21 11:32N 47°36' W 122°23'5 5.2
2015-May-21 10:33N 47°32' W 122°28'0 6.3
2015-May-21 10:31N 47°32' W 122°28'6 6.7
2015-May-21 09:33N 47°26' W 122°31'0 7.0
2015-May-21 09:30N 47°26' W 122°31'6 6.7
2015-May-21 08:33N 47°20' W 122°33'8 7.7
2015-May-21 07:32N 47°12' W 122°36'13 0.7
2015-May-20 13:23N 47°12' W 122°56'3 3.7
2015-May-20 12:33N 47°10' W 122°53'6 4.9
2015-May-20 11:13N 47°11' W 122°44'5 6.8
2015-May-20 10:31N 47°11' W 122°37'7 7.6
2015-May-20 09:33N 47°18' W 122°33'6 5.6
2015-May-20 08:33N 47°24' W 122°32'0 2.5
2015-May-20 08:24N 47°24' W 122°32'6 6.6
2015-May-20 07:33N 47°18' W 122°33'8 7.2
2015-May-20 06:29N 47°11' W 122°39'10 0.5
2015-May-19 11:21N 47°09' W 122°53'3 4.3
2015-May-19 10:33N 47°11' W 122°49'6 4.7
2015-May-19 09:20N 47°07' W 122°43'5 6.6
2015-May-19 08:31N 47°11' W 122°37'7 6.7
2015-May-19 07:33N 47°17' W 122°33'4 3.6
2015-May-19 06:33N 47°18' W 122°27'3 0.9
2015-May-19 03:06N 47°17' W 122°23'4 7.2
2015-May-19 02:33N 47°19' W 122°27'1 9.2
2015-May-19 02:25N 47°20' W 122°27'8 8.7
2015-May-19 01:33N 47°28' W 122°23'110.5
2015-May-19 01:26N 47°29' W 122°24'7 8.2
2015-May-19 00:33N 47°36' W 122°23'0 8.8
2015-May-19 00:31N 47°36' W 122°23'3 3.5
2015-May-18 23:33N 47°33' W 122°20'0 0.8
2015-May-18 23:30N 47°33' W 122°20'1 1.0
2015-May-18 22:24N 47°34' W 122°21'0 0.0
2015-May-18 22:24N 47°34' W 122°21'2 1.9
2015-May-18 21:33N 47°35' W 122°22'0 0.1
2015-May-18 21:29N 47°35' W 122°22'0 0.0
2015-May-18 20:33N 47°35' W 122°22'0 0.1
2015-May-18 20:29N 47°35' W 122°22'1 0.6
2015-May-18 19:33N 47°36' W 122°22'0 0.0
2015-May-18 19:33N 47°36' W 122°22'4 4.0
2015-May-18 18:33N 47°33' W 122°27'2 5.8
2015-May-18 18:17N 47°32' W 122°28'5 7.1
2015-May-18 17:33N 47°27' W 122°31'1 6.9
2015-May-18 17:22N 47°26' W 122°32'6 7.1
2015-May-18 16:33N 47°20' W 122°33'9 8.6
2015-May-18 15:33N 47°12' W 122°36'4 3.9
2015-May-18 14:32N 47°08' W 122°39'0 0.0
2015-May-18 14:16N 47°08' W 122°39'0 0.0
2015-May-18 12:32N 47°08' W 122°39'0 0.0
2015-May-18 11:54N 47°08' W 122°39'0 0.0
2015-May-18 11:33N 47°08' W 122°39'0 0.0
2015-May-18 10:33N 47°08' W 122°39'4 1.8
2015-May-18 08:30N 47°12' W 122°37'5 4.6
2015-May-18 07:27N 47°16' W 122°33'5 5.8
2015-May-18 06:33N 47°21' W 122°32'7 6.6
2015-May-18 05:33N 47°27' W 122°31'6 6.4
2015-May-18 04:33N 47°33' W 122°27'0 7.2
2015-May-18 04:30N 47°34' W 122°27'4 4.2
2015-May-18 03:32N 47°34' W 122°21'0 3.1
2015-May-18 03:30N 47°34' W 122°21'0 0.2
2015-May-18 02:30N 47°34' W 122°21'0 0.4
2015-May-18 02:29N 47°34' W 122°21'2 1.8
2015-May-18 01:33N 47°35' W 122°22'0 5.4
2015-May-18 01:29N 47°35' W 122°22'2 1.8
2015-May-18 00:33N 47°33' W 122°21'0 2.2
2015-May-18 00:23N 47°34' W 122°21'0 0.1
2015-May-17 23:33N 47°34' W 122°21'0 0.0
2015-May-17 23:33N 47°34' W 122°21'0 0.0
2015-May-17 22:24N 47°34' W 122°21'0 0.0
2015-May-17 22:08N 47°34' W 122°21'0 0.0
2015-May-17 20:37N 47°34' W 122°21'0 0.0
2015-May-17 20:27N 47°34' W 122°21'0 0.0
2015-May-17 19:33N 47°34' W 122°21'0 0.3
2015-May-17 18:31N 47°34' W 122°21'0 2.6
2015-May-17 18:29N 47°34' W 122°21'0 0.5
2015-May-17 17:33N 47°34' W 122°21'0 0.0
2015-May-17 17:31N 47°34' W 122°21'0 0.0
2015-May-17 16:33N 47°34' W 122°21'0 0.0
2015-May-17 16:30N 47°34' W 122°21'0 0.0
2015-May-17 15:33N 47°34' W 122°21'0 0.1
2015-May-17 15:29N 47°34' W 122°21'0 0.0
2015-May-17 14:34N 47°34' W 122°21'0 0.0
2015-May-17 14:33N 47°34' W 122°21'0 0.0
2015-May-17 13:33N 47°34' W 122°21'0 0.0
2015-May-17 13:32N 47°34' W 122°21'0 0.0
2015-May-17 12:33N 47°34' W 122°21'0 0.0
2015-May-17 12:32N 47°34' W 122°21'0 0.0
2015-May-17 11:27N 47°34' W 122°21'0 0.0
2015-May-17 11:25N 47°34' W 122°21'0 0.0
2015-May-17 10:33N 47°34' W 122°21'0 0.0
2015-May-17 10:30N 47°34' W 122°21'0 0.0
2015-May-17 09:18N 47°34' W 122°21'0 0.0
2015-May-17 09:14N 47°34' W 122°21'0 0.0
2015-May-17 08:33N 47°34' W 122°21'0 0.2
2015-May-17 08:29N 47°34' W 122°21'  

Dump ship's entire track history